sensor_id;sensor_type;location;lat;lon;timestamp;P1;durP1;ratioP1;P2;durP2;ratioP2
80392;SDS011;69719;45.544;10.218;2023-11-19T00:02:10;23.17;;;7.50;;
80392;SDS011;69719;45.544;10.218;2023-11-19T00:04:38;13.48;;;8.13;;
80392;SDS011;69719;45.544;10.218;2023-11-19T00:07:04;13.95;;;7.68;;
80392;SDS011;69719;45.544;10.218;2023-11-19T00:09:32;19.92;;;7.95;;
80392;SDS011;69719;45.544;10.218;2023-11-19T00:11:58;19.83;;;9.88;;
80392;SDS011;69719;45.544;10.218;2023-11-19T00:14:25;26.38;;;12.25;;
80392;SDS011;69719;45.544;10.218;2023-11-19T00:16:51;24.40;;;10.85;;
80392;SDS011;69719;45.544;10.218;2023-11-19T00:19:18;19.60;;;9.07;;
80392;SDS011;69719;45.544;10.218;2023-11-19T00:21:44;17.77;;;8.75;;
80392;SDS011;69719;45.544;10.218;2023-11-19T00:24:11;19.88;;;8.35;;
80392;SDS011;69719;45.544;10.218;2023-11-19T00:26:37;14.40;;;7.72;;
80392;SDS011;69719;45.544;10.218;2023-11-19T00:29:06;14.52;;;7.00;;
80392;SDS011;69719;45.544;10.218;2023-11-19T00:31:32;18.30;;;7.85;;
80392;SDS011;69719;45.544;10.218;2023-11-19T00:33:58;16.48;;;7.50;;
80392;SDS011;69719;45.544;10.218;2023-11-19T00:36:23;14.20;;;8.38;;
80392;SDS011;69719;45.544;10.218;2023-11-19T00:38:49;17.33;;;6.70;;
80392;SDS011;69719;45.544;10.218;2023-11-19T00:41:15;15.88;;;7.53;;
80392;SDS011;69719;45.544;10.218;2023-11-19T00:43:42;16.90;;;8.77;;
80392;SDS011;69719;45.544;10.218;2023-11-19T00:46:07;16.83;;;7.22;;
80392;SDS011;69719;45.544;10.218;2023-11-19T00:48:33;14.93;;;7.38;;
80392;SDS011;69719;45.544;10.218;2023-11-19T00:50:59;14.52;;;7.18;;
80392;SDS011;69719;45.544;10.218;2023-11-19T00:53:24;12.68;;;6.47;;
80392;SDS011;69719;45.544;10.218;2023-11-19T00:55:50;12.57;;;6.57;;
80392;SDS011;69719;45.544;10.218;2023-11-19T00:58:15;14.35;;;6.45;;
80392;SDS011;69719;45.544;10.218;2023-11-19T01:00:42;12.63;;;6.38;;
80392;SDS011;69719;45.544;10.218;2023-11-19T01:03:08;13.68;;;6.43;;
80392;SDS011;69719;45.544;10.218;2023-11-19T01:05:33;14.05;;;6.80;;
80392;SDS011;69719;45.544;10.218;2023-11-19T01:07:59;13.07;;;6.22;;
80392;SDS011;69719;45.544;10.218;2023-11-19T01:10:24;11.98;;;6.35;;
80392;SDS011;69719;45.544;10.218;2023-11-19T01:12:51;13.30;;;6.55;;
80392;SDS011;69719;45.544;10.218;2023-11-19T01:15:17;16.20;;;7.97;;
80392;SDS011;69719;45.544;10.218;2023-11-19T01:17:44;13.25;;;7.35;;
80392;SDS011;69719;45.544;10.218;2023-11-19T01:20:10;17.30;;;7.63;;
80392;SDS011;69719;45.544;10.218;2023-11-19T01:22:38;14.52;;;7.57;;
80392;SDS011;69719;45.544;10.218;2023-11-19T01:25:04;17.08;;;6.28;;
80392;SDS011;69719;45.544;10.218;2023-11-19T01:27:30;11.32;;;5.90;;
80392;SDS011;69719;45.544;10.218;2023-11-19T01:29:56;19.98;;;6.97;;
80392;SDS011;69719;45.544;10.218;2023-11-19T01:32:21;9.63;;;5.38;;
80392;SDS011;69719;45.544;10.218;2023-11-19T01:34:49;18.25;;;6.20;;
80392;SDS011;69719;45.544;10.218;2023-11-19T01:37:14;21.02;;;8.90;;
80392;SDS011;69719;45.544;10.218;2023-11-19T01:39:43;23.90;;;11.07;;
80392;SDS011;69719;45.544;10.218;2023-11-19T01:42:09;13.65;;;6.88;;
80392;SDS011;69719;45.544;10.218;2023-11-19T01:44:34;15.18;;;6.65;;
80392;SDS011;69719;45.544;10.218;2023-11-19T01:47:00;21.27;;;7.18;;
80392;SDS011;69719;45.544;10.218;2023-11-19T01:49:27;28.45;;;7.97;;
80392;SDS011;69719;45.544;10.218;2023-11-19T01:51:54;10.80;;;5.63;;
80392;SDS011;69719;45.544;10.218;2023-11-19T01:54:19;12.23;;;5.53;;
80392;SDS011;69719;45.544;10.218;2023-11-19T01:56:45;50.10;;;13.52;;
80392;SDS011;69719;45.544;10.218;2023-11-19T01:59:10;13.82;;;5.85;;
80392;SDS011;69719;45.544;10.218;2023-11-19T02:01:38;12.98;;;5.75;;
80392;SDS011;69719;45.544;10.218;2023-11-19T02:04:05;14.65;;;6.47;;
80392;SDS011;69719;45.544;10.218;2023-11-19T02:06:32;13.95;;;5.28;;
80392;SDS011;69719;45.544;10.218;2023-11-19T02:08:59;12.02;;;5.82;;
80392;SDS011;69719;45.544;10.218;2023-11-19T02:11:26;7.85;;;4.80;;
80392;SDS011;69719;45.544;10.218;2023-11-19T02:13:55;11.30;;;6.03;;
80392;SDS011;69719;45.544;10.218;2023-11-19T02:16:21;17.55;;;6.22;;
80392;SDS011;69719;45.544;10.218;2023-11-19T02:18:47;11.30;;;5.70;;
80392;SDS011;69719;45.544;10.218;2023-11-19T02:21:13;11.48;;;6.22;;
80392;SDS011;69719;45.544;10.218;2023-11-19T02:23:40;15.45;;;6.00;;
80392;SDS011;69719;45.544;10.218;2023-11-19T02:28:35;17.83;;;6.63;;
80392;SDS011;69719;45.544;10.218;2023-11-19T02:31:02;11.20;;;5.55;;
80392;SDS011;69719;45.544;10.218;2023-11-19T02:33:30;10.60;;;5.72;;
80392;SDS011;69719;45.544;10.218;2023-11-19T02:35:55;10.00;;;5.55;;
80392;SDS011;69719;45.544;10.218;2023-11-19T02:38:21;12.57;;;5.70;;
80392;SDS011;69719;45.544;10.218;2023-11-19T02:40:47;9.85;;;5.75;;
80392;SDS011;69719;45.544;10.218;2023-11-19T02:43:14;11.15;;;6.25;;
80392;SDS011;69719;45.544;10.218;2023-11-19T02:45:40;8.15;;;5.03;;
80392;SDS011;69719;45.544;10.218;2023-11-19T02:48:05;10.55;;;5.40;;
80392;SDS011;69719;45.544;10.218;2023-11-19T02:50:31;12.50;;;5.43;;
80392;SDS011;69719;45.544;10.218;2023-11-19T02:52:57;11.13;;;5.60;;
80392;SDS011;69719;45.544;10.218;2023-11-19T02:55:23;10.95;;;5.43;;
80392;SDS011;69719;45.544;10.218;2023-11-19T02:57:49;13.30;;;5.75;;
80392;SDS011;69719;45.544;10.218;2023-11-19T03:00:16;9.90;;;5.68;;
80392;SDS011;69719;45.544;10.218;2023-11-19T03:02:49;11.48;;;5.72;;
80392;SDS011;69719;45.544;10.218;2023-11-19T03:05:24;12.13;;;6.05;;
80392;SDS011;69719;45.544;10.218;2023-11-19T03:07:50;10.75;;;5.88;;
80392;SDS011;69719;45.544;10.218;2023-11-19T03:10:16;12.88;;;5.88;;
80392;SDS011;69719;45.544;10.218;2023-11-19T03:12:43;8.82;;;5.13;;
80392;SDS011;69719;45.544;10.218;2023-11-19T03:15:10;10.38;;;5.18;;
80392;SDS011;69719;45.544;10.218;2023-11-19T03:17:38;12.27;;;6.32;;
80392;SDS011;69719;45.544;10.218;2023-11-19T03:20:08;10.43;;;5.75;;
80392;SDS011;69719;45.544;10.218;2023-11-19T03:22:38;12.82;;;5.63;;
80392;SDS011;69719;45.544;10.218;2023-11-19T03:25:04;10.02;;;5.50;;
80392;SDS011;69719;45.544;10.218;2023-11-19T03:27:29;11.82;;;5.18;;
80392;SDS011;69719;45.544;10.218;2023-11-19T03:29:58;12.32;;;5.47;;
80392;SDS011;69719;45.544;10.218;2023-11-19T03:32:23;9.48;;;5.45;;
80392;SDS011;69719;45.544;10.218;2023-11-19T03:34:49;11.30;;;6.25;;
80392;SDS011;69719;45.544;10.218;2023-11-19T03:37:14;10.30;;;5.82;;
80392;SDS011;69719;45.544;10.218;2023-11-19T03:39:42;10.85;;;5.70;;
80392;SDS011;69719;45.544;10.218;2023-11-19T03:42:07;9.85;;;5.50;;
80392;SDS011;69719;45.544;10.218;2023-11-19T03:44:33;14.35;;;6.40;;
80392;SDS011;69719;45.544;10.218;2023-11-19T03:46:58;13.80;;;7.13;;
80392;SDS011;69719;45.544;10.218;2023-11-19T03:49:24;9.95;;;5.93;;
80392;SDS011;69719;45.544;10.218;2023-11-19T03:51:49;10.73;;;6.43;;
80392;SDS011;69719;45.544;10.218;2023-11-19T03:54:15;10.48;;;5.63;;
80392;SDS011;69719;45.544;10.218;2023-11-19T03:56:40;11.48;;;5.57;;
80392;SDS011;69719;45.544;10.218;2023-11-19T03:59:06;10.95;;;5.63;;
80392;SDS011;69719;45.544;10.218;2023-11-19T04:01:33;10.57;;;5.28;;
80392;SDS011;69719;45.544;10.218;2023-11-19T04:03:58;10.43;;;6.18;;
80392;SDS011;69719;45.544;10.218;2023-11-19T04:06:25;11.75;;;5.68;;
80392;SDS011;69719;45.544;10.218;2023-11-19T04:08:51;9.88;;;5.80;;
80392;SDS011;69719;45.544;10.218;2023-11-19T04:11:16;14.50;;;6.00;;
80392;SDS011;69719;45.544;10.218;2023-11-19T04:13:42;11.38;;;6.10;;
80392;SDS011;69719;45.544;10.218;2023-11-19T04:16:07;9.98;;;5.32;;
80392;SDS011;69719;45.544;10.218;2023-11-19T04:18:33;11.88;;;6.18;;
80392;SDS011;69719;45.544;10.218;2023-11-19T04:20:58;12.48;;;5.60;;
80392;SDS011;69719;45.544;10.218;2023-11-19T04:23:24;9.10;;;5.60;;
80392;SDS011;69719;45.544;10.218;2023-11-19T04:25:52;12.93;;;5.60;;
80392;SDS011;69719;45.544;10.218;2023-11-19T04:28:18;12.25;;;5.43;;
80392;SDS011;69719;45.544;10.218;2023-11-19T04:30:43;10.77;;;5.85;;
80392;SDS011;69719;45.544;10.218;2023-11-19T04:33:09;11.27;;;5.65;;
80392;SDS011;69719;45.544;10.218;2023-11-19T04:35:35;12.52;;;5.80;;
80392;SDS011;69719;45.544;10.218;2023-11-19T04:38:00;9.77;;;5.38;;
80392;SDS011;69719;45.544;10.218;2023-11-19T04:40:26;23.65;;;5.90;;
80392;SDS011;69719;45.544;10.218;2023-11-19T04:42:51;11.52;;;5.53;;
80392;SDS011;69719;45.544;10.218;2023-11-19T04:45:17;10.07;;;4.93;;
80392;SDS011;69719;45.544;10.218;2023-11-19T04:47:43;9.65;;;5.57;;
80392;SDS011;69719;45.544;10.218;2023-11-19T04:50:09;10.38;;;5.55;;
80392;SDS011;69719;45.544;10.218;2023-11-19T04:52:38;14.82;;;5.40;;
80392;SDS011;69719;45.544;10.218;2023-11-19T04:55:10;14.27;;;5.93;;
80392;SDS011;69719;45.544;10.218;2023-11-19T04:57:39;10.10;;;5.05;;
80392;SDS011;69719;45.544;10.218;2023-11-19T05:00:05;16.05;;;5.70;;
80392;SDS011;69719;45.544;10.218;2023-11-19T05:02:32;15.07;;;5.78;;
80392;SDS011;69719;45.544;10.218;2023-11-19T05:04:57;16.02;;;6.50;;
80392;SDS011;69719;45.544;10.218;2023-11-19T05:07:23;10.45;;;5.53;;
80392;SDS011;69719;45.544;10.218;2023-11-19T05:09:48;11.30;;;5.30;;
80392;SDS011;69719;45.544;10.218;2023-11-19T05:12:14;60.17;;;10.55;;
80392;SDS011;69719;45.544;10.218;2023-11-19T05:14:39;10.05;;;5.93;;
80392;SDS011;69719;45.544;10.218;2023-11-19T05:17:05;9.98;;;5.70;;
80392;SDS011;69719;45.544;10.218;2023-11-19T05:19:30;12.32;;;5.88;;
80392;SDS011;69719;45.544;10.218;2023-11-19T05:21:56;11.25;;;5.90;;
80392;SDS011;69719;45.544;10.218;2023-11-19T05:24:22;11.73;;;6.32;;
80392;SDS011;69719;45.544;10.218;2023-11-19T05:26:48;12.45;;;6.15;;
80392;SDS011;69719;45.544;10.218;2023-11-19T05:29:16;14.20;;;6.50;;
80392;SDS011;69719;45.544;10.218;2023-11-19T05:31:41;9.95;;;5.97;;
80392;SDS011;69719;45.544;10.218;2023-11-19T05:34:07;13.98;;;6.28;;
80392;SDS011;69719;45.544;10.218;2023-11-19T05:36:32;11.05;;;6.10;;
80392;SDS011;69719;45.544;10.218;2023-11-19T05:38:58;14.57;;;6.18;;
80392;SDS011;69719;45.544;10.218;2023-11-19T05:41:23;12.57;;;6.00;;
80392;SDS011;69719;45.544;10.218;2023-11-19T05:43:49;20.08;;;10.27;;
80392;SDS011;69719;45.544;10.218;2023-11-19T05:46:14;12.45;;;6.15;;
80392;SDS011;69719;45.544;10.218;2023-11-19T05:48:41;10.18;;;5.93;;
80392;SDS011;69719;45.544;10.218;2023-11-19T05:51:07;12.63;;;6.30;;
80392;SDS011;69719;45.544;10.218;2023-11-19T05:53:33;14.27;;;5.93;;
80392;SDS011;69719;45.544;10.218;2023-11-19T05:55:59;10.52;;;5.88;;
80392;SDS011;69719;45.544;10.218;2023-11-19T05:58:28;14.75;;;6.00;;
80392;SDS011;69719;45.544;10.218;2023-11-19T06:00:55;9.18;;;5.55;;
80392;SDS011;69719;45.544;10.218;2023-11-19T06:03:21;9.45;;;5.15;;
80392;SDS011;69719;45.544;10.218;2023-11-19T06:05:47;13.25;;;6.50;;
80392;SDS011;69719;45.544;10.218;2023-11-19T06:08:14;9.63;;;5.50;;
80392;SDS011;69719;45.544;10.218;2023-11-19T06:10:43;9.55;;;5.63;;
80392;SDS011;69719;45.544;10.218;2023-11-19T06:13:11;10.15;;;5.18;;
80392;SDS011;69719;45.544;10.218;2023-11-19T06:15:37;10.05;;;5.25;;
80392;SDS011;69719;45.544;10.218;2023-11-19T06:18:03;12.25;;;5.93;;
80392;SDS011;69719;45.544;10.218;2023-11-19T06:20:32;11.15;;;6.00;;
80392;SDS011;69719;45.544;10.218;2023-11-19T06:22:58;12.55;;;7.05;;
80392;SDS011;69719;45.544;10.218;2023-11-19T06:25:24;10.40;;;5.90;;
80392;SDS011;69719;45.544;10.218;2023-11-19T06:27:50;11.70;;;6.10;;
80392;SDS011;69719;45.544;10.218;2023-11-19T06:30:16;9.20;;;5.60;;
80392;SDS011;69719;45.544;10.218;2023-11-19T06:32:42;12.75;;;6.00;;
80392;SDS011;69719;45.544;10.218;2023-11-19T06:35:07;14.05;;;5.85;;
80392;SDS011;69719;45.544;10.218;2023-11-19T06:37:38;9.77;;;6.07;;
80392;SDS011;69719;45.544;10.218;2023-11-19T06:40:04;13.85;;;5.80;;
80392;SDS011;69719;45.544;10.218;2023-11-19T06:42:31;10.90;;;6.05;;
80392;SDS011;69719;45.544;10.218;2023-11-19T06:44:56;13.80;;;7.20;;
80392;SDS011;69719;45.544;10.218;2023-11-19T06:47:24;12.90;;;7.13;;
80392;SDS011;69719;45.544;10.218;2023-11-19T06:49:51;11.60;;;6.15;;
80392;SDS011;69719;45.544;10.218;2023-11-19T06:52:17;11.73;;;6.60;;
80392;SDS011;69719;45.544;10.218;2023-11-19T06:54:42;11.02;;;6.45;;
80392;SDS011;69719;45.544;10.218;2023-11-19T06:57:08;12.13;;;6.80;;
80392;SDS011;69719;45.544;10.218;2023-11-19T06:59:34;11.30;;;5.95;;
80392;SDS011;69719;45.544;10.218;2023-11-19T07:02:00;14.00;;;6.82;;
80392;SDS011;69719;45.544;10.218;2023-11-19T07:04:25;15.73;;;7.20;;
80392;SDS011;69719;45.544;10.218;2023-11-19T07:06:51;15.40;;;7.45;;
80392;SDS011;69719;45.544;10.218;2023-11-19T07:09:18;15.00;;;7.13;;
80392;SDS011;69719;45.544;10.218;2023-11-19T07:11:44;15.10;;;7.57;;
80392;SDS011;69719;45.544;10.218;2023-11-19T07:14:10;11.50;;;6.18;;
80392;SDS011;69719;45.544;10.218;2023-11-19T07:16:36;13.23;;;6.63;;
80392;SDS011;69719;45.544;10.218;2023-11-19T07:19:03;13.40;;;7.28;;
80392;SDS011;69719;45.544;10.218;2023-11-19T07:21:30;15.88;;;6.35;;
80392;SDS011;69719;45.544;10.218;2023-11-19T07:23:56;12.20;;;7.30;;
80392;SDS011;69719;45.544;10.218;2023-11-19T07:26:22;13.13;;;7.05;;
80392;SDS011;69719;45.544;10.218;2023-11-19T07:28:51;13.23;;;6.97;;
80392;SDS011;69719;45.544;10.218;2023-11-19T07:31:17;13.73;;;6.80;;
80392;SDS011;69719;45.544;10.218;2023-11-19T07:33:44;12.35;;;7.15;;
80392;SDS011;69719;45.544;10.218;2023-11-19T07:36:13;11.85;;;6.95;;
80392;SDS011;69719;45.544;10.218;2023-11-19T07:38:39;14.27;;;7.05;;
80392;SDS011;69719;45.544;10.218;2023-11-19T07:41:05;14.23;;;7.45;;
80392;SDS011;69719;45.544;10.218;2023-11-19T07:43:31;11.82;;;7.35;;
80392;SDS011;69719;45.544;10.218;2023-11-19T07:45:57;10.38;;;6.32;;
80392;SDS011;69719;45.544;10.218;2023-11-19T07:48:24;14.70;;;6.68;;
80392;SDS011;69719;45.544;10.218;2023-11-19T07:50:51;11.60;;;7.18;;
80392;SDS011;69719;45.544;10.218;2023-11-19T07:53:18;12.57;;;7.20;;
80392;SDS011;69719;45.544;10.218;2023-11-19T07:55:44;14.20;;;7.47;;
80392;SDS011;69719;45.544;10.218;2023-11-19T07:58:12;10.48;;;6.20;;
80392;SDS011;69719;45.544;10.218;2023-11-19T08:00:38;13.93;;;7.00;;
80392;SDS011;69719;45.544;10.218;2023-11-19T08:03:04;13.63;;;6.55;;
80392;SDS011;69719;45.544;10.218;2023-11-19T08:05:30;12.93;;;6.93;;
80392;SDS011;69719;45.544;10.218;2023-11-19T08:07:56;13.35;;;7.25;;
80392;SDS011;69719;45.544;10.218;2023-11-19T08:10:22;13.95;;;7.85;;
80392;SDS011;69719;45.544;10.218;2023-11-19T08:12:47;26.48;;;14.35;;
80392;SDS011;69719;45.544;10.218;2023-11-19T08:15:13;13.60;;;7.00;;
80392;SDS011;69719;45.544;10.218;2023-11-19T08:17:39;14.43;;;7.10;;
80392;SDS011;69719;45.544;10.218;2023-11-19T08:20:05;12.95;;;7.20;;
80392;SDS011;69719;45.544;10.218;2023-11-19T08:22:35;16.55;;;7.85;;
80392;SDS011;69719;45.544;10.218;2023-11-19T08:25:02;15.48;;;8.48;;
80392;SDS011;69719;45.544;10.218;2023-11-19T08:27:29;14.68;;;8.07;;
80392;SDS011;69719;45.544;10.218;2023-11-19T08:29:54;17.05;;;8.13;;
80392;SDS011;69719;45.544;10.218;2023-11-19T08:32:23;14.10;;;6.82;;
80392;SDS011;69719;45.544;10.218;2023-11-19T08:34:49;16.60;;;7.50;;
80392;SDS011;69719;45.544;10.218;2023-11-19T08:37:15;15.35;;;8.02;;
80392;SDS011;69719;45.544;10.218;2023-11-19T08:39:43;15.07;;;7.35;;
80392;SDS011;69719;45.544;10.218;2023-11-19T08:42:08;11.57;;;6.82;;
80392;SDS011;69719;45.544;10.218;2023-11-19T08:44:34;14.52;;;7.45;;
80392;SDS011;69719;45.544;10.218;2023-11-19T08:46:59;12.93;;;7.05;;
80392;SDS011;69719;45.544;10.218;2023-11-19T08:49:25;16.45;;;7.55;;
80392;SDS011;69719;45.544;10.218;2023-11-19T08:51:50;14.23;;;7.07;;
80392;SDS011;69719;45.544;10.218;2023-11-19T08:54:16;13.88;;;7.25;;
80392;SDS011;69719;45.544;10.218;2023-11-19T08:56:42;20.38;;;9.52;;
80392;SDS011;69719;45.544;10.218;2023-11-19T08:59:07;13.90;;;7.10;;
80392;SDS011;69719;45.544;10.218;2023-11-19T09:01:33;19.38;;;8.07;;
80392;SDS011;69719;45.544;10.218;2023-11-19T09:03:59;15.88;;;8.00;;
80392;SDS011;69719;45.544;10.218;2023-11-19T09:06:24;16.08;;;7.25;;
80392;SDS011;69719;45.544;10.218;2023-11-19T09:08:50;13.75;;;7.20;;
80392;SDS011;69719;45.544;10.218;2023-11-19T09:11:16;16.00;;;7.15;;
80392;SDS011;69719;45.544;10.218;2023-11-19T09:13:42;17.08;;;7.75;;
80392;SDS011;69719;45.544;10.218;2023-11-19T09:16:07;13.05;;;7.35;;
80392;SDS011;69719;45.544;10.218;2023-11-19T09:18:34;13.35;;;6.82;;
80392;SDS011;69719;45.544;10.218;2023-11-19T09:21:00;15.18;;;7.55;;
80392;SDS011;69719;45.544;10.218;2023-11-19T09:23:25;14.10;;;7.80;;
80392;SDS011;69719;45.544;10.218;2023-11-19T09:25:52;17.20;;;8.30;;
80392;SDS011;69719;45.544;10.218;2023-11-19T09:28:18;19.52;;;8.13;;
80392;SDS011;69719;45.544;10.218;2023-11-19T09:30:44;16.42;;;7.78;;
80392;SDS011;69719;45.544;10.218;2023-11-19T09:33:10;15.43;;;8.20;;
80392;SDS011;69719;45.544;10.218;2023-11-19T09:35:35;16.48;;;7.95;;
80392;SDS011;69719;45.544;10.218;2023-11-19T09:38:01;14.20;;;6.82;;
80392;SDS011;69719;45.544;10.218;2023-11-19T09:40:27;17.60;;;8.23;;
80392;SDS011;69719;45.544;10.218;2023-11-19T09:42:53;17.45;;;7.45;;
80392;SDS011;69719;45.544;10.218;2023-11-19T09:45:20;14.60;;;7.43;;
80392;SDS011;69719;45.544;10.218;2023-11-19T09:47:47;13.40;;;7.35;;
80392;SDS011;69719;45.544;10.218;2023-11-19T09:50:16;17.80;;;7.15;;
80392;SDS011;69719;45.544;10.218;2023-11-19T09:52:43;14.48;;;7.43;;
80392;SDS011;69719;45.544;10.218;2023-11-19T09:55:10;16.92;;;8.05;;
80392;SDS011;69719;45.544;10.218;2023-11-19T09:57:35;18.60;;;10.45;;
80392;SDS011;69719;45.544;10.218;2023-11-19T10:00:03;14.43;;;6.75;;
80392;SDS011;69719;45.544;10.218;2023-11-19T10:02:33;23.73;;;8.10;;
80392;SDS011;69719;45.544;10.218;2023-11-19T10:05:04;18.00;;;7.88;;
80392;SDS011;69719;45.544;10.218;2023-11-19T10:07:32;15.05;;;7.57;;
80392;SDS011;69719;45.544;10.218;2023-11-19T10:10:04;14.68;;;6.53;;
80392;SDS011;69719;45.544;10.218;2023-11-19T10:12:30;25.13;;;9.32;;
80392;SDS011;69719;45.544;10.218;2023-11-19T10:14:56;13.23;;;7.13;;
80392;SDS011;69719;45.544;10.218;2023-11-19T10:17:32;13.45;;;6.53;;
80392;SDS011;69719;45.544;10.218;2023-11-19T10:19:58;15.63;;;6.85;;
80392;SDS011;69719;45.544;10.218;2023-11-19T10:22:24;13.27;;;7.15;;
80392;SDS011;69719;45.544;10.218;2023-11-19T10:24:51;18.60;;;8.43;;
80392;SDS011;69719;45.544;10.218;2023-11-19T10:27:17;17.42;;;8.50;;
80392;SDS011;69719;45.544;10.218;2023-11-19T10:29:46;18.80;;;8.20;;
80392;SDS011;69719;45.544;10.218;2023-11-19T10:32:13;23.35;;;10.10;;
80392;SDS011;69719;45.544;10.218;2023-11-19T10:34:40;26.23;;;10.27;;
80392;SDS011;69719;45.544;10.218;2023-11-19T10:37:06;15.63;;;7.90;;
80392;SDS011;69719;45.544;10.218;2023-11-19T10:42:19;19.38;;;10.10;;
80392;SDS011;69719;45.544;10.218;2023-11-19T10:44:45;18.75;;;9.68;;
80392;SDS011;69719;45.544;10.218;2023-11-19T10:47:11;19.65;;;8.00;;
80392;SDS011;69719;45.544;10.218;2023-11-19T10:49:38;20.40;;;8.98;;
80392;SDS011;69719;45.544;10.218;2023-11-19T10:52:05;16.23;;;8.20;;
80392;SDS011;69719;45.544;10.218;2023-11-19T10:54:34;15.70;;;7.65;;
80392;SDS011;69719;45.544;10.218;2023-11-19T10:57:01;16.40;;;8.73;;
80392;SDS011;69719;45.544;10.218;2023-11-19T10:59:28;17.02;;;7.88;;
80392;SDS011;69719;45.544;10.218;2023-11-19T11:01:56;16.90;;;8.32;;
80392;SDS011;69719;45.544;10.218;2023-11-19T11:04:23;15.50;;;7.90;;
80392;SDS011;69719;45.544;10.218;2023-11-19T11:06:56;17.20;;;8.38;;
80392;SDS011;69719;45.544;10.218;2023-11-19T11:09:25;16.15;;;8.40;;
80392;SDS011;69719;45.544;10.218;2023-11-19T11:11:52;13.65;;;7.63;;
80392;SDS011;69719;45.544;10.218;2023-11-19T11:14:20;17.50;;;8.60;;
80392;SDS011;69719;45.544;10.218;2023-11-19T11:16:48;18.30;;;9.48;;
80392;SDS011;69719;45.544;10.218;2023-11-19T11:19:15;27.52;;;12.93;;
80392;SDS011;69719;45.544;10.218;2023-11-19T11:21:42;34.45;;;18.23;;
80392;SDS011;69719;45.544;10.218;2023-11-19T11:27:21;38.13;;;19.60;;
80392;SDS011;69719;45.544;10.218;2023-11-19T11:38:07;15.00;;;8.05;;
80392;SDS011;69719;45.544;10.218;2023-11-19T11:40:34;13.52;;;7.97;;
80392;SDS011;69719;45.544;10.218;2023-11-19T11:43:01;19.40;;;10.90;;
80392;SDS011;69719;45.544;10.218;2023-11-19T11:45:36;14.75;;;8.07;;
80392;SDS011;69719;45.544;10.218;2023-11-19T11:50:47;13.20;;;7.63;;
80392;SDS011;69719;45.544;10.218;2023-11-19T11:53:23;12.63;;;7.57;;
80392;SDS011;69719;45.544;10.218;2023-11-19T11:58:28;13.13;;;7.55;;
80392;SDS011;69719;45.544;10.218;2023-11-19T12:00:59;17.35;;;8.82;;
80392;SDS011;69719;45.544;10.218;2023-11-19T12:03:27;13.48;;;7.68;;
80392;SDS011;69719;45.544;10.218;2023-11-19T12:05:54;14.25;;;8.00;;
80392;SDS011;69719;45.544;10.218;2023-11-19T12:08:22;15.10;;;8.40;;
80392;SDS011;69719;45.544;10.218;2023-11-19T12:10:51;19.05;;;9.68;;
80392;SDS011;69719;45.544;10.218;2023-11-19T12:13:18;13.48;;;8.25;;
80392;SDS011;69719;45.544;10.218;2023-11-19T12:18:30;14.65;;;8.30;;
80392;SDS011;69719;45.544;10.218;2023-11-19T12:20:57;16.70;;;8.82;;
80392;SDS011;69719;45.544;10.218;2023-11-19T12:23:26;18.90;;;7.53;;
80392;SDS011;69719;45.544;10.218;2023-11-19T12:25:52;14.23;;;8.23;;
80392;SDS011;69719;45.544;10.218;2023-11-19T12:28:17;15.20;;;8.35;;
80392;SDS011;69719;45.544;10.218;2023-11-19T12:30:44;16.10;;;8.43;;
80392;SDS011;69719;45.544;10.218;2023-11-19T12:33:10;17.15;;;8.40;;
80392;SDS011;69719;45.544;10.218;2023-11-19T12:35:40;14.20;;;9.25;;
80392;SDS011;69719;45.544;10.218;2023-11-19T12:38:06;15.57;;;8.52;;
80392;SDS011;69719;45.544;10.218;2023-11-19T12:40:31;14.50;;;9.20;;
80392;SDS011;69719;45.544;10.218;2023-11-19T12:42:57;17.52;;;9.55;;
80392;SDS011;69719;45.544;10.218;2023-11-19T12:45:24;17.33;;;8.98;;
80392;SDS011;69719;45.544;10.218;2023-11-19T12:47:49;14.27;;;8.98;;
80392;SDS011;69719;45.544;10.218;2023-11-19T12:50:17;18.45;;;9.75;;
80392;SDS011;69719;45.544;10.218;2023-11-19T12:52:54;19.65;;;10.13;;
80392;SDS011;69719;45.544;10.218;2023-11-19T12:55:25;19.73;;;9.57;;
80392;SDS011;69719;45.544;10.218;2023-11-19T12:57:54;17.95;;;10.10;;
80392;SDS011;69719;45.544;10.218;2023-11-19T13:00:21;16.15;;;10.43;;
80392;SDS011;69719;45.544;10.218;2023-11-19T13:02:48;20.30;;;11.57;;
80392;SDS011;69719;45.544;10.218;2023-11-19T13:05:31;22.20;;;10.98;;
80392;SDS011;69719;45.544;10.218;2023-11-19T13:08:10;19.65;;;10.85;;
80392;SDS011;69719;45.544;10.218;2023-11-19T13:13:16;18.23;;;10.95;;
80392;SDS011;69719;45.544;10.218;2023-11-19T13:15:42;19.35;;;11.48;;
80392;SDS011;69719;45.544;10.218;2023-11-19T13:18:10;19.63;;;10.23;;
80392;SDS011;69719;45.544;10.218;2023-11-19T13:20:35;21.30;;;11.90;;
80392;SDS011;69719;45.544;10.218;2023-11-19T13:23:03;20.73;;;11.73;;
80392;SDS011;69719;45.544;10.218;2023-11-19T13:25:30;19.23;;;12.13;;
80392;SDS011;69719;45.544;10.218;2023-11-19T13:27:57;20.35;;;12.48;;
80392;SDS011;69719;45.544;10.218;2023-11-19T13:30:24;21.13;;;12.10;;
80392;SDS011;69719;45.544;10.218;2023-11-19T13:32:50;18.52;;;11.00;;
80392;SDS011;69719;45.544;10.218;2023-11-19T13:35:17;24.30;;;10.85;;
80392;SDS011;69719;45.544;10.218;2023-11-19T13:37:43;21.70;;;11.32;;
80392;SDS011;69719;45.544;10.218;2023-11-19T13:40:10;20.10;;;10.63;;
80392;SDS011;69719;45.544;10.218;2023-11-19T13:42:43;16.63;;;9.70;;
80392;SDS011;69719;45.544;10.218;2023-11-19T13:47:37;17.83;;;10.40;;
80392;SDS011;69719;45.544;10.218;2023-11-19T13:50:18;19.13;;;9.53;;
80392;SDS011;69719;45.544;10.218;2023-11-19T13:52:45;15.43;;;9.82;;
80392;SDS011;69719;45.544;10.218;2023-11-19T13:55:12;17.75;;;10.00;;
80392;SDS011;69719;45.544;10.218;2023-11-19T13:57:38;19.13;;;10.35;;
80392;SDS011;69719;45.544;10.218;2023-11-19T14:00:06;22.30;;;11.10;;
80392;SDS011;69719;45.544;10.218;2023-11-19T14:02:39;17.00;;;9.73;;
80392;SDS011;69719;45.544;10.218;2023-11-19T14:05:05;17.40;;;9.27;;
80392;SDS011;69719;45.544;10.218;2023-11-19T14:07:32;15.68;;;9.55;;
80392;SDS011;69719;45.544;10.218;2023-11-19T14:09:57;17.45;;;8.48;;
80392;SDS011;69719;45.544;10.218;2023-11-19T14:12:23;15.60;;;9.27;;
80392;SDS011;69719;45.544;10.218;2023-11-19T14:14:49;20.08;;;9.48;;
80392;SDS011;69719;45.544;10.218;2023-11-19T14:17:14;17.88;;;8.85;;
80392;SDS011;69719;45.544;10.218;2023-11-19T14:19:41;13.45;;;8.82;;
80392;SDS011;69719;45.544;10.218;2023-11-19T14:22:07;15.27;;;8.80;;
80392;SDS011;69719;45.544;10.218;2023-11-19T14:24:33;15.75;;;8.38;;
80392;SDS011;69719;45.544;10.218;2023-11-19T14:26:59;15.10;;;9.05;;
80392;SDS011;69719;45.544;10.218;2023-11-19T14:29:25;12.63;;;8.73;;
80392;SDS011;69719;45.544;10.218;2023-11-19T14:31:52;13.90;;;8.75;;
80392;SDS011;69719;45.544;10.218;2023-11-19T14:34:19;13.82;;;9.18;;
80392;SDS011;69719;45.544;10.218;2023-11-19T14:36:45;17.40;;;9.50;;
80392;SDS011;69719;45.544;10.218;2023-11-19T14:39:11;37.28;;;19.05;;
80392;SDS011;69719;45.544;10.218;2023-11-19T14:41:36;15.50;;;9.25;;
80392;SDS011;69719;45.544;10.218;2023-11-19T14:44:02;19.45;;;9.80;;
80392;SDS011;69719;45.544;10.218;2023-11-19T14:46:28;13.90;;;8.73;;
80392;SDS011;69719;45.544;10.218;2023-11-19T14:48:54;18.05;;;9.00;;